sensor_id;sensor_type;location;lat;lon;timestamp;P1;durP1;ratioP1;P2;durP2;ratioP2
66739;SDS011;53653;52.188;8.602;2022-07-05T00:00:06;7.15;;;2.03;;
66739;SDS011;53653;52.188;8.602;2022-07-05T00:02:32;5.30;;;1.90;;
66739;SDS011;53653;52.188;8.602;2022-07-05T00:04:58;5.40;;;2.10;;
66739;SDS011;53653;52.188;8.602;2022-07-05T00:07:23;5.40;;;2.00;;
66739;SDS011;53653;52.188;8.602;2022-07-05T00:12:14;5.30;;;2.00;;
66739;SDS011;53653;52.188;8.602;2022-07-05T00:14:41;5.00;;;2.10;;
66739;SDS011;53653;52.188;8.602;2022-07-05T00:17:07;7.53;;;2.08;;
66739;SDS011;53653;52.188;8.602;2022-07-05T00:19:33;6.37;;;1.77;;
66739;SDS011;53653;52.188;8.602;2022-07-05T00:21:59;5.60;;;2.17;;
66739;SDS011;53653;52.188;8.602;2022-07-05T00:24:25;6.03;;;2.10;;
66739;SDS011;53653;52.188;8.602;2022-07-05T00:26:50;6.68;;;2.13;;
66739;SDS011;53653;52.188;8.602;2022-07-05T00:29:16;6.17;;;2.10;;
66739;SDS011;53653;52.188;8.602;2022-07-05T00:31:41;6.13;;;2.13;;
66739;SDS011;53653;52.188;8.602;2022-07-05T00:34:07;7.17;;;2.23;;
66739;SDS011;53653;52.188;8.602;2022-07-05T00:36:32;5.10;;;2.10;;
66739;SDS011;53653;52.188;8.602;2022-07-05T00:38:57;6.20;;;2.40;;
66739;SDS011;53653;52.188;8.602;2022-07-05T00:41:23;6.60;;;2.30;;
66739;SDS011;53653;52.188;8.602;2022-07-05T00:43:53;6.33;;;2.37;;
66739;SDS011;53653;52.188;8.602;2022-07-05T00:46:20;6.60;;;2.50;;
66739;SDS011;53653;52.188;8.602;2022-07-05T00:48:45;7.13;;;2.45;;
66739;SDS011;53653;52.188;8.602;2022-07-05T00:51:11;5.57;;;2.50;;
66739;SDS011;53653;52.188;8.602;2022-07-05T00:53:36;6.43;;;2.27;;
66739;SDS011;53653;52.188;8.602;2022-07-05T00:56:02;6.27;;;2.47;;
66739;SDS011;53653;52.188;8.602;2022-07-05T00:58:29;7.63;;;2.63;;
66739;SDS011;53653;52.188;8.602;2022-07-05T01:00:56;6.43;;;2.80;;
66739;SDS011;53653;52.188;8.602;2022-07-05T01:03:21;8.23;;;2.57;;
66739;SDS011;53653;52.188;8.602;2022-07-05T01:05:47;6.27;;;2.47;;
66739;SDS011;53653;52.188;8.602;2022-07-05T01:08:13;6.22;;;2.60;;
66739;SDS011;53653;52.188;8.602;2022-07-05T01:10:38;6.83;;;2.40;;
66739;SDS011;53653;52.188;8.602;2022-07-05T01:13:05;7.30;;;2.90;;
66739;SDS011;53653;52.188;8.602;2022-07-05T01:15:31;5.73;;;2.40;;
66739;SDS011;53653;52.188;8.602;2022-07-05T01:17:57;9.00;;;2.30;;
66739;SDS011;53653;52.188;8.602;2022-07-05T01:20:23;5.78;;;2.40;;
66739;SDS011;53653;52.188;8.602;2022-07-05T01:22:49;6.07;;;2.50;;
66739;SDS011;53653;52.188;8.602;2022-07-05T01:25:23;5.45;;;2.40;;
66739;SDS011;53653;52.188;8.602;2022-07-05T01:27:50;5.60;;;2.55;;
66739;SDS011;53653;52.188;8.602;2022-07-05T01:30:16;7.10;;;2.47;;
66739;SDS011;53653;52.188;8.602;2022-07-05T01:32:42;6.22;;;2.40;;
66739;SDS011;53653;52.188;8.602;2022-07-05T01:35:08;5.63;;;2.25;;
66739;SDS011;53653;52.188;8.602;2022-07-05T01:37:35;8.00;;;2.60;;
66739;SDS011;53653;52.188;8.602;2022-07-05T01:40:02;5.95;;;2.08;;
66739;SDS011;53653;52.188;8.602;2022-07-05T01:42:28;6.90;;;2.87;;
66739;SDS011;53653;52.188;8.602;2022-07-05T01:44:54;6.75;;;2.40;;
66739;SDS011;53653;52.188;8.602;2022-07-05T01:47:19;5.40;;;2.50;;
66739;SDS011;53653;52.188;8.602;2022-07-05T01:49:47;6.25;;;2.30;;
66739;SDS011;53653;52.188;8.602;2022-07-05T01:52:14;6.82;;;2.45;;
66739;SDS011;53653;52.188;8.602;2022-07-05T01:54:42;5.67;;;2.40;;
66739;SDS011;53653;52.188;8.602;2022-07-05T01:57:08;6.63;;;2.30;;
66739;SDS011;53653;52.188;8.602;2022-07-05T01:59:34;6.30;;;2.30;;
66739;SDS011;53653;52.188;8.602;2022-07-05T02:02:01;6.07;;;2.58;;
66739;SDS011;53653;52.188;8.602;2022-07-05T02:04:28;6.00;;;2.53;;
66739;SDS011;53653;52.188;8.602;2022-07-05T02:06:54;6.13;;;2.63;;
66739;SDS011;53653;52.188;8.602;2022-07-05T02:09:20;7.57;;;2.55;;
66739;SDS011;53653;52.188;8.602;2022-07-05T02:11:45;6.23;;;2.60;;
66739;SDS011;53653;52.188;8.602;2022-07-05T02:14:11;6.90;;;2.58;;
66739;SDS011;53653;52.188;8.602;2022-07-05T02:16:37;5.87;;;2.80;;
66739;SDS011;53653;52.188;8.602;2022-07-05T02:19:02;6.60;;;2.40;;
66739;SDS011;53653;52.188;8.602;2022-07-05T02:21:28;5.70;;;2.57;;
66739;SDS011;53653;52.188;8.602;2022-07-05T02:23:53;5.37;;;2.30;;
66739;SDS011;53653;52.188;8.602;2022-07-05T02:26:19;5.70;;;2.05;;
66739;SDS011;53653;52.188;8.602;2022-07-05T02:28:44;7.27;;;2.20;;
66739;SDS011;53653;52.188;8.602;2022-07-05T02:31:10;7.07;;;2.60;;
66739;SDS011;53653;52.188;8.602;2022-07-05T02:33:35;7.97;;;2.45;;
66739;SDS011;53653;52.188;8.602;2022-07-05T02:36:05;7.67;;;2.40;;
66739;SDS011;53653;52.188;8.602;2022-07-05T02:38:32;7.60;;;2.50;;
66739;SDS011;53653;52.188;8.602;2022-07-05T02:40:57;5.65;;;2.40;;
66739;SDS011;53653;52.188;8.602;2022-07-05T02:43:23;6.20;;;2.47;;
66739;SDS011;53653;52.188;8.602;2022-07-05T02:45:48;11.53;;;3.10;;
66739;SDS011;53653;52.188;8.602;2022-07-05T02:48:13;6.23;;;2.60;;
66739;SDS011;53653;52.188;8.602;2022-07-05T02:50:39;6.60;;;2.60;;
66739;SDS011;53653;52.188;8.602;2022-07-05T02:53:04;7.40;;;2.73;;
66739;SDS011;53653;52.188;8.602;2022-07-05T02:55:30;7.27;;;2.43;;
66739;SDS011;53653;52.188;8.602;2022-07-05T02:57:55;7.00;;;2.73;;
66739;SDS011;53653;52.188;8.602;2022-07-05T03:00:21;8.95;;;2.83;;
66739;SDS011;53653;52.188;8.602;2022-07-05T03:02:46;8.17;;;2.60;;
66739;SDS011;53653;52.188;8.602;2022-07-05T03:05:12;7.23;;;2.90;;
66739;SDS011;53653;52.188;8.602;2022-07-05T03:07:37;6.43;;;3.13;;
66739;SDS011;53653;52.188;8.602;2022-07-05T03:10:02;8.47;;;2.83;;
66739;SDS011;53653;52.188;8.602;2022-07-05T03:12:28;6.43;;;2.67;;
66739;SDS011;53653;52.188;8.602;2022-07-05T03:14:53;8.37;;;3.20;;
66739;SDS011;53653;52.188;8.602;2022-07-05T03:17:19;6.65;;;3.30;;
66739;SDS011;53653;52.188;8.602;2022-07-05T03:19:44;6.73;;;2.63;;
66739;SDS011;53653;52.188;8.602;2022-07-05T03:22:10;6.33;;;2.93;;
66739;SDS011;53653;52.188;8.602;2022-07-05T03:24:35;8.47;;;3.23;;
66739;SDS011;53653;52.188;8.602;2022-07-05T03:27:01;8.97;;;3.07;;
66739;SDS011;53653;52.188;8.602;2022-07-05T03:29:26;8.73;;;3.20;;
66739;SDS011;53653;52.188;8.602;2022-07-05T03:31:52;8.83;;;3.33;;
66739;SDS011;53653;52.188;8.602;2022-07-05T03:34:17;7.45;;;3.40;;
66739;SDS011;53653;52.188;8.602;2022-07-05T03:36:42;8.83;;;3.80;;
66739;SDS011;53653;52.188;8.602;2022-07-05T03:39:08;7.77;;;3.53;;
66739;SDS011;53653;52.188;8.602;2022-07-05T03:41:33;9.17;;;3.53;;
66739;SDS011;53653;52.188;8.602;2022-07-05T03:43:59;8.40;;;3.58;;
66739;SDS011;53653;52.188;8.602;2022-07-05T03:46:24;7.67;;;3.17;;
66739;SDS011;53653;52.188;8.602;2022-07-05T03:48:49;7.03;;;3.27;;
66739;SDS011;53653;52.188;8.602;2022-07-05T03:51:15;7.73;;;3.67;;
66739;SDS011;53653;52.188;8.602;2022-07-05T03:53:40;8.45;;;3.30;;
66739;SDS011;53653;52.188;8.602;2022-07-05T03:56:06;6.23;;;3.30;;
66739;SDS011;53653;52.188;8.602;2022-07-05T03:58:31;8.37;;;3.03;;
66739;SDS011;53653;52.188;8.602;2022-07-05T04:00:57;7.10;;;3.28;;
66739;SDS011;53653;52.188;8.602;2022-07-05T04:03:22;7.40;;;3.50;;
66739;SDS011;53653;52.188;8.602;2022-07-05T04:05:48;7.70;;;3.20;;
66739;SDS011;53653;52.188;8.602;2022-07-05T04:08:13;7.03;;;3.57;;
66739;SDS011;53653;52.188;8.602;2022-07-05T04:10:38;7.68;;;3.22;;
66739;SDS011;53653;52.188;8.602;2022-07-05T04:13:04;9.50;;;3.33;;
66739;SDS011;53653;52.188;8.602;2022-07-05T04:15:29;8.10;;;3.30;;
66739;SDS011;53653;52.188;8.602;2022-07-05T04:17:55;7.90;;;3.20;;
66739;SDS011;53653;52.188;8.602;2022-07-05T04:20:21;6.57;;;3.03;;
66739;SDS011;53653;52.188;8.602;2022-07-05T04:22:48;6.68;;;2.80;;
66739;SDS011;53653;52.188;8.602;2022-07-05T04:25:14;6.85;;;2.97;;
66739;SDS011;53653;52.188;8.602;2022-07-05T04:27:45;6.22;;;2.92;;
66739;SDS011;53653;52.188;8.602;2022-07-05T04:30:12;8.17;;;3.40;;
66739;SDS011;53653;52.188;8.602;2022-07-05T04:32:38;6.85;;;3.55;;
66739;SDS011;53653;52.188;8.602;2022-07-05T04:35:03;6.97;;;3.30;;
66739;SDS011;53653;52.188;8.602;2022-07-05T04:37:29;7.00;;;3.10;;
66739;SDS011;53653;52.188;8.602;2022-07-05T04:39:55;7.90;;;2.90;;
66739;SDS011;53653;52.188;8.602;2022-07-05T04:42:20;7.38;;;3.20;;
66739;SDS011;53653;52.188;8.602;2022-07-05T04:44:46;9.97;;;3.40;;
66739;SDS011;53653;52.188;8.602;2022-07-05T04:47:11;10.23;;;3.50;;
66739;SDS011;53653;52.188;8.602;2022-07-05T04:49:36;9.73;;;3.73;;
66739;SDS011;53653;52.188;8.602;2022-07-05T04:52:02;8.23;;;3.20;;
66739;SDS011;53653;52.188;8.602;2022-07-05T04:54:27;7.33;;;3.13;;
66739;SDS011;53653;52.188;8.602;2022-07-05T04:56:53;10.93;;;3.20;;
66739;SDS011;53653;52.188;8.602;2022-07-05T04:59:18;6.82;;;3.42;;
66739;SDS011;53653;52.188;8.602;2022-07-05T05:01:44;7.53;;;3.10;;
66739;SDS011;53653;52.188;8.602;2022-07-05T05:04:09;7.27;;;3.10;;
66739;SDS011;53653;52.188;8.602;2022-07-05T05:06:34;9.90;;;2.90;;
66739;SDS011;53653;52.188;8.602;2022-07-05T05:09:00;7.65;;;2.92;;
66739;SDS011;53653;52.188;8.602;2022-07-05T05:11:25;8.17;;;2.90;;
66739;SDS011;53653;52.188;8.602;2022-07-05T05:13:51;6.60;;;2.93;;
66739;SDS011;53653;52.188;8.602;2022-07-05T05:16:16;6.90;;;2.93;;
66739;SDS011;53653;52.188;8.602;2022-07-05T05:18:42;6.45;;;3.20;;
66739;SDS011;53653;52.188;8.602;2022-07-05T05:21:07;10.50;;;3.50;;
66739;SDS011;53653;52.188;8.602;2022-07-05T05:23:32;7.23;;;3.37;;
66739;SDS011;53653;52.188;8.602;2022-07-05T05:25:58;9.67;;;3.20;;
66739;SDS011;53653;52.188;8.602;2022-07-05T05:28:23;8.55;;;3.13;;
66739;SDS011;53653;52.188;8.602;2022-07-05T05:30:49;6.50;;;3.17;;
66739;SDS011;53653;52.188;8.602;2022-07-05T05:33:14;6.87;;;2.70;;
66739;SDS011;53653;52.188;8.602;2022-07-05T05:35:40;5.95;;;2.70;;
66739;SDS011;53653;52.188;8.602;2022-07-05T05:38:06;9.60;;;3.00;;
66739;SDS011;53653;52.188;8.602;2022-07-05T05:40:32;8.00;;;3.38;;
66739;SDS011;53653;52.188;8.602;2022-07-05T05:43:03;6.88;;;3.05;;
66739;SDS011;53653;52.188;8.602;2022-07-05T05:45:28;6.03;;;2.77;;
66739;SDS011;53653;52.188;8.602;2022-07-05T05:47:55;8.23;;;2.83;;
66739;SDS011;53653;52.188;8.602;2022-07-05T05:50:23;7.20;;;2.70;;
66739;SDS011;53653;52.188;8.602;2022-07-05T05:52:48;7.60;;;2.85;;
66739;SDS011;53653;52.188;8.602;2022-07-05T05:55:14;10.43;;;3.80;;
66739;SDS011;53653;52.188;8.602;2022-07-05T05:57:40;9.30;;;3.00;;
66739;SDS011;53653;52.188;8.602;2022-07-05T06:00:06;8.80;;;3.10;;
66739;SDS011;53653;52.188;8.602;2022-07-05T06:02:32;6.75;;;3.08;;
66739;SDS011;53653;52.188;8.602;2022-07-05T06:04:58;9.10;;;3.40;;
66739;SDS011;53653;52.188;8.602;2022-07-05T06:07:23;6.95;;;2.83;;
66739;SDS011;53653;52.188;8.602;2022-07-05T06:09:49;8.90;;;2.73;;
66739;SDS011;53653;52.188;8.602;2022-07-05T06:12:14;9.20;;;2.87;;
66739;SDS011;53653;52.188;8.602;2022-07-05T06:14:40;7.57;;;2.80;;
66739;SDS011;53653;52.188;8.602;2022-07-05T06:17:05;7.67;;;2.70;;
66739;SDS011;53653;52.188;8.602;2022-07-05T06:19:31;9.53;;;2.93;;
66739;SDS011;53653;52.188;8.602;2022-07-05T06:21:56;9.55;;;3.13;;
66739;SDS011;53653;52.188;8.602;2022-07-05T06:24:22;9.47;;;3.50;;
66739;SDS011;53653;52.188;8.602;2022-07-05T06:26:47;7.23;;;2.80;;
66739;SDS011;53653;52.188;8.602;2022-07-05T06:29:12;7.47;;;3.07;;
66739;SDS011;53653;52.188;8.602;2022-07-05T06:31:38;6.07;;;2.63;;
66739;SDS011;53653;52.188;8.602;2022-07-05T06:34:03;7.40;;;2.90;;
66739;SDS011;53653;52.188;8.602;2022-07-05T06:36:29;6.47;;;2.47;;
66739;SDS011;53653;52.188;8.602;2022-07-05T06:38:54;7.67;;;2.40;;
66739;SDS011;53653;52.188;8.602;2022-07-05T06:41:20;7.65;;;2.40;;
66739;SDS011;53653;52.188;8.602;2022-07-05T06:43:45;6.77;;;2.43;;
66739;SDS011;53653;52.188;8.602;2022-07-05T06:46:11;8.80;;;2.57;;
66739;SDS011;53653;52.188;8.602;2022-07-05T06:48:36;6.38;;;2.45;;
66739;SDS011;53653;52.188;8.602;2022-07-05T06:51:01;8.70;;;2.10;;
66739;SDS011;53653;52.188;8.602;2022-07-05T06:53:27;6.07;;;1.93;;
66739;SDS011;53653;52.188;8.602;2022-07-05T06:55:52;7.43;;;2.20;;
66739;SDS011;53653;52.188;8.602;2022-07-05T06:58:18;7.35;;;2.50;;
66739;SDS011;53653;52.188;8.602;2022-07-05T07:00:44;6.00;;;2.30;;
66739;SDS011;53653;52.188;8.602;2022-07-05T07:03:09;7.65;;;2.42;;
66739;SDS011;53653;52.188;8.602;2022-07-05T07:05:35;7.57;;;2.20;;
66739;SDS011;53653;52.188;8.602;2022-07-05T07:08:00;5.18;;;2.22;;
66739;SDS011;53653;52.188;8.602;2022-07-05T07:10:45;8.20;;;2.43;;
66739;SDS011;53653;52.188;8.602;2022-07-05T07:13:10;8.00;;;2.55;;
66739;SDS011;53653;52.188;8.602;2022-07-05T07:15:36;6.73;;;2.30;;
66739;SDS011;53653;52.188;8.602;2022-07-05T07:18:03;5.78;;;2.35;;
66739;SDS011;53653;52.188;8.602;2022-07-05T07:20:29;7.13;;;2.50;;
66739;SDS011;53653;52.188;8.602;2022-07-05T07:22:54;6.00;;;2.20;;
66739;SDS011;53653;52.188;8.602;2022-07-05T07:25:20;6.10;;;2.10;;
66739;SDS011;53653;52.188;8.602;2022-07-05T07:30:15;5.72;;;2.30;;
66739;SDS011;53653;52.188;8.602;2022-07-05T07:32:42;5.75;;;2.30;;
66739;SDS011;53653;52.188;8.602;2022-07-05T07:35:08;8.33;;;1.80;;
66739;SDS011;53653;52.188;8.602;2022-07-05T07:37:34;6.63;;;1.77;;
66739;SDS011;53653;52.188;8.602;2022-07-05T07:40:00;7.32;;;1.90;;
66739;SDS011;53653;52.188;8.602;2022-07-05T07:42:27;5.80;;;1.90;;
66739;SDS011;53653;52.188;8.602;2022-07-05T07:44:53;7.87;;;2.00;;
66739;SDS011;53653;52.188;8.602;2022-07-05T07:47:19;6.40;;;1.90;;
66739;SDS011;53653;52.188;8.602;2022-07-05T07:49:44;5.45;;;2.03;;
66739;SDS011;53653;52.188;8.602;2022-07-05T07:52:10;5.53;;;1.87;;
66739;SDS011;53653;52.188;8.602;2022-07-05T07:54:36;9.07;;;1.90;;
66739;SDS011;53653;52.188;8.602;2022-07-05T07:57:01;7.27;;;1.83;;
66739;SDS011;53653;52.188;8.602;2022-07-05T07:59:30;4.22;;;1.38;;
66739;SDS011;53653;52.188;8.602;2022-07-05T08:01:56;6.88;;;2.00;;
66739;SDS011;53653;52.188;8.602;2022-07-05T08:04:21;5.97;;;1.27;;
66739;SDS011;53653;52.188;8.602;2022-07-05T08:06:46;4.40;;;1.10;;
66739;SDS011;53653;52.188;8.602;2022-07-05T08:09:12;4.40;;;1.00;;
66739;SDS011;53653;52.188;8.602;2022-07-05T08:11:39;4.67;;;1.03;;
66739;SDS011;53653;52.188;8.602;2022-07-05T08:14:04;3.38;;;0.90;;
66739;SDS011;53653;52.188;8.602;2022-07-05T08:16:30;4.67;;;1.10;;
66739;SDS011;53653;52.188;8.602;2022-07-05T08:18:55;3.95;;;1.00;;
66739;SDS011;53653;52.188;8.602;2022-07-05T08:21:40;4.40;;;1.20;;
66739;SDS011;53653;52.188;8.602;2022-07-05T08:24:06;4.93;;;1.30;;
66739;SDS011;53653;52.188;8.602;2022-07-05T08:26:33;4.72;;;1.23;;
66739;SDS011;53653;52.188;8.602;2022-07-05T08:29:00;6.13;;;1.48;;
66739;SDS011;53653;52.188;8.602;2022-07-05T08:31:29;4.75;;;1.40;;
66739;SDS011;53653;52.188;8.602;2022-07-05T08:33:57;3.60;;;1.10;;
66739;SDS011;53653;52.188;8.602;2022-07-05T08:36:23;4.10;;;1.42;;
66739;SDS011;53653;52.188;8.602;2022-07-05T08:38:48;6.63;;;1.30;;
66739;SDS011;53653;52.188;8.602;2022-07-05T08:41:15;6.33;;;1.40;;
66739;SDS011;53653;52.188;8.602;2022-07-05T08:43:43;4.53;;;1.30;;
66739;SDS011;53653;52.188;8.602;2022-07-05T08:46:11;3.97;;;1.30;;
66739;SDS011;53653;52.188;8.602;2022-07-05T08:48:39;4.60;;;1.25;;
66739;SDS011;53653;52.188;8.602;2022-07-05T08:51:18;4.10;;;1.30;;
66739;SDS011;53653;52.188;8.602;2022-07-05T08:53:51;4.75;;;1.05;;
66739;SDS011;53653;52.188;8.602;2022-07-05T08:56:18;5.30;;;1.30;;
66739;SDS011;53653;52.188;8.602;2022-07-05T08:58:44;5.22;;;1.10;;
66739;SDS011;53653;52.188;8.602;2022-07-05T09:01:10;5.23;;;1.40;;
66739;SDS011;53653;52.188;8.602;2022-07-05T09:03:38;6.90;;;1.23;;
66739;SDS011;53653;52.188;8.602;2022-07-05T09:06:15;3.88;;;1.20;;
66739;SDS011;53653;52.188;8.602;2022-07-05T09:08:42;6.22;;;1.38;;
66739;SDS011;53653;52.188;8.602;2022-07-05T09:11:12;5.30;;;1.30;;
66739;SDS011;53653;52.188;8.602;2022-07-05T09:13:40;4.93;;;1.50;;
66739;SDS011;53653;52.188;8.602;2022-07-05T09:16:07;6.78;;;1.40;;
66739;SDS011;53653;52.188;8.602;2022-07-05T09:18:40;5.43;;;1.25;;
66739;SDS011;53653;52.188;8.602;2022-07-05T09:23:38;5.10;;;1.30;;
66739;SDS011;53653;52.188;8.602;2022-07-05T09:26:04;4.97;;;1.43;;
66739;SDS011;53653;52.188;8.602;2022-07-05T09:28:30;5.20;;;1.50;;
66739;SDS011;53653;52.188;8.602;2022-07-05T09:30:55;5.10;;;1.30;;
66739;SDS011;53653;52.188;8.602;2022-07-05T09:33:21;5.47;;;1.50;;
66739;SDS011;53653;52.188;8.602;2022-07-05T09:35:53;4.37;;;1.10;;
66739;SDS011;53653;52.188;8.602;2022-07-05T09:38:21;5.07;;;1.20;;
66739;SDS011;53653;52.188;8.602;2022-07-05T09:40:58;4.50;;;1.30;;
66739;SDS011;53653;52.188;8.602;2022-07-05T09:43:27;5.68;;;1.27;;
66739;SDS011;53653;52.188;8.602;2022-07-05T09:48:22;6.67;;;1.37;;
66739;SDS011;53653;52.188;8.602;2022-07-05T09:50:48;5.70;;;1.30;;
66739;SDS011;53653;52.188;8.602;2022-07-05T09:53:15;5.10;;;1.60;;
66739;SDS011;53653;52.188;8.602;2022-07-05T09:55:41;5.20;;;1.40;;
66739;SDS011;53653;52.188;8.602;2022-07-05T09:58:06;5.53;;;1.33;;
66739;SDS011;53653;52.188;8.602;2022-07-05T10:00:32;6.03;;;1.52;;
66739;SDS011;53653;52.188;8.602;2022-07-05T10:02:58;5.85;;;1.45;;
66739;SDS011;53653;52.188;8.602;2022-07-05T10:05:27;6.80;;;1.40;;
66739;SDS011;53653;52.188;8.602;2022-07-05T10:07:55;4.80;;;1.20;;
66739;SDS011;53653;52.188;8.602;2022-07-05T10:10:24;4.00;;;1.23;;
66739;SDS011;53653;52.188;8.602;2022-07-05T10:12:52;5.55;;;1.23;;
66739;SDS011;53653;52.188;8.602;2022-07-05T10:15:21;5.22;;;1.20;;
66739;SDS011;53653;52.188;8.602;2022-07-05T10:23:02;5.40;;;1.30;;
66739;SDS011;53653;52.188;8.602;2022-07-05T10:25:30;4.15;;;1.13;;
66739;SDS011;53653;52.188;8.602;2022-07-05T10:27:56;5.13;;;1.33;;
66739;SDS011;53653;52.188;8.602;2022-07-05T10:30:23;5.15;;;1.40;;
66739;SDS011;53653;52.188;8.602;2022-07-05T10:32:49;6.83;;;1.40;;
66739;SDS011;53653;52.188;8.602;2022-07-05T10:35:16;3.28;;;1.00;;
66739;SDS011;53653;52.188;8.602;2022-07-05T10:37:42;4.13;;;1.30;;
66739;SDS011;53653;52.188;8.602;2022-07-05T10:40:08;4.22;;;1.20;;
66739;SDS011;53653;52.188;8.602;2022-07-05T10:42:58;4.53;;;1.38;;
66739;SDS011;53653;52.188;8.602;2022-07-05T11:06:05;8.18;;;2.00;;
66739;SDS011;53653;52.188;8.602;2022-07-05T11:09:19;4.13;;;1.30;;
66739;SDS011;53653;52.188;8.602;2022-07-05T11:14:03;4.82;;;1.17;;
66739;SDS011;53653;52.188;8.602;2022-07-05T11:17:09;5.78;;;1.38;;
66739;SDS011;53653;52.188;8.602;2022-07-05T11:22:31;6.53;;;1.60;;
66739;SDS011;53653;52.188;8.602;2022-07-05T11:24:57;3.88;;;1.20;;
66739;SDS011;53653;52.188;8.602;2022-07-05T11:27:24;4.85;;;1.30;;
66739;SDS011;53653;52.188;8.602;2022-07-05T11:29:50;4.37;;;1.30;;
66739;SDS011;53653;52.188;8.602;2022-07-05T11:32:17;4.53;;;1.50;;
66739;SDS011;53653;52.188;8.602;2022-07-05T11:34:47;4.78;;;1.33;;
66739;SDS011;53653;52.188;8.602;2022-07-05T11:40:25;4.45;;;1.35;;
66739;SDS011;53653;52.188;8.602;2022-07-05T11:42:37;6.33;;;1.50;;
66739;SDS011;53653;52.188;8.602;2022-07-05T11:45:10;4.90;;;1.30;;
66739;SDS011;53653;52.188;8.602;2022-07-05T11:47:37;5.75;;;1.40;;
66739;SDS011;53653;52.188;8.602;2022-07-05T11:50:02;4.65;;;1.50;;
66739;SDS011;53653;52.188;8.602;2022-07-05T11:52:29;6.53;;;1.60;;
66739;SDS011;53653;52.188;8.602;2022-07-05T11:54:56;5.68;;;1.10;;
66739;SDS011;53653;52.188;8.602;2022-07-05T11:57:23;6.65;;;1.35;;
66739;SDS011;53653;52.188;8.602;2022-07-05T11:59:49;4.77;;;1.33;;
66739;SDS011;53653;52.188;8.602;2022-07-05T12:02:15;4.50;;;1.30;;
66739;SDS011;53653;52.188;8.602;2022-07-05T12:04:40;4.70;;;1.40;;
66739;SDS011;53653;52.188;8.602;2022-07-05T12:07:12;5.45;;;1.30;;
66739;SDS011;53653;52.188;8.602;2022-07-05T12:09:58;6.77;;;1.20;;
66739;SDS011;53653;52.188;8.602;2022-07-05T12:12:43;5.72;;;1.38;;
66739;SDS011;53653;52.188;8.602;2022-07-05T12:17:38;6.05;;;1.40;;
66739;SDS011;53653;52.188;8.602;2022-07-05T12:20:06;4.93;;;1.27;;
66739;SDS011;53653;52.188;8.602;2022-07-05T12:22:37;4.85;;;1.20;;
66739;SDS011;53653;52.188;8.602;2022-07-05T12:25:05;4.65;;;1.30;;
66739;SDS011;53653;52.188;8.602;2022-07-05T12:27:33;5.90;;;1.45;;
66739;SDS011;53653;52.188;8.602;2022-07-05T12:30:01;6.85;;;1.95;;
66739;SDS011;53653;52.188;8.602;2022-07-05T12:32:28;4.60;;;1.30;;
66739;SDS011;53653;52.188;8.602;2022-07-05T12:34:55;4.03;;;1.35;;
66739;SDS011;53653;52.188;8.602;2022-07-05T12:37:21;4.50;;;1.33;;
66739;SDS011;53653;52.188;8.602;2022-07-05T12:39:48;4.90;;;1.40;;
66739;SDS011;53653;52.188;8.602;2022-07-05T12:42:30;5.75;;;1.30;;
66739;SDS011;53653;52.188;8.602;2022-07-05T12:45:11;5.13;;;1.20;;
66739;SDS011;53653;52.188;8.602;2022-07-05T12:47:53;4.55;;;1.40;;
66739;SDS011;53653;52.188;8.602;2022-07-05T12:50:24;5.10;;;1.30;;
66739;SDS011;53653;52.188;8.602;2022-07-05T12:52:54;6.97;;;1.23;;
66739;SDS011;53653;52.188;8.602;2022-07-05T12:55:32;5.15;;;1.25;;
66739;SDS011;53653;52.188;8.602;2022-07-05T12:58:17;5.20;;;1.50;;
66739;SDS011;53653;52.188;8.602;2022-07-05T13:00:42;5.10;;;1.40;;
66739;SDS011;53653;52.188;8.602;2022-07-05T13:03:08;4.10;;;1.47;;
66739;SDS011;53653;52.188;8.602;2022-07-05T13:05:33;4.67;;;1.40;;
66739;SDS011;53653;52.188;8.602;2022-07-05T13:07:59;5.57;;;1.30;;
66739;SDS011;53653;52.188;8.602;2022-07-05T13:10:25;4.87;;;1.40;;
66739;SDS011;53653;52.188;8.602;2022-07-05T13:12:56;6.15;;;1.40;;
66739;SDS011;53653;52.188;8.602;2022-07-05T13:15:22;5.40;;;1.23;;
66739;SDS011;53653;52.188;8.602;2022-07-05T13:17:48;4.83;;;1.30;;
66739;SDS011;53653;52.188;8.602;2022-07-05T13:20:15;6.10;;;1.45;;
66739;SDS011;53653;52.188;8.602;2022-07-05T13:22:42;4.85;;;1.33;;
66739;SDS011;53653;52.188;8.602;2022-07-05T13:25:09;11.47;;;2.03;;
66739;SDS011;53653;52.188;8.602;2022-07-05T13:27:41;4.90;;;1.20;;
66739;SDS011;53653;52.188;8.602;2022-07-05T13:30:07;5.28;;;1.20;;
66739;SDS011;53653;52.188;8.602;2022-07-05T13:32:33;5.93;;;1.48;;
66739;SDS011;53653;52.188;8.602;2022-07-05T13:34:58;6.50;;;1.33;;
66739;SDS011;53653;52.188;8.602;2022-07-05T13:37:24;5.37;;;1.53;;
66739;SDS011;53653;52.188;8.602;2022-07-05T13:39:49;5.13;;;1.30;;
66739;SDS011;53653;52.188;8.602;2022-07-05T13:42:15;5.13;;;1.30;;
66739;SDS011;53653;52.188;8.602;2022-07-05T13:44:40;4.28;;;1.38;;
66739;SDS011;53653;52.188;8.602;2022-07-05T13:47:06;5.33;;;1.30;;
66739;SDS011;53653;52.188;8.602;2022-07-05T13:49:32;4.33;;;1.20;;
66739;SDS011;53653;52.188;8.602;2022-07-05T13:51:57;4.70;;;1.23;;
66739;SDS011;53653;52.188;8.602;2022-07-05T13:54:26;3.95;;;1.30;;
66739;SDS011;53653;52.188;8.602;2022-07-05T13:56:52;4.73;;;1.53;;
66739;SDS011;53653;52.188;8.602;2022-07-05T13:59:17;4.35;;;1.40;;
66739;SDS011;53653;52.188;8.602;2022-07-05T14:01:45;4.07;;;1.30;;
66739;SDS011;53653;52.188;8.602;2022-07-05T14:04:11;6.30;;;1.40;;
66739;SDS011;53653;52.188;8.602;2022-07-05T14:06:36;4.20;;;1.30;;
66739;SDS011;53653;52.188;8.602;2022-07-05T14:09:03;4.97;;;1.30;;
66739;SDS011;53653;52.188;8.602;2022-07-05T14:11:28;5.18;;;1.45;;
66739;SDS011;53653;52.188;8.602;2022-07-05T14:13:54;6.23;;;1.43;;
66739;SDS011;53653;52.188;8.602;2022-07-05T14:16:20;4.78;;;1.27;;
66739;SDS011;53653;52.188;8.602;2022-07-05T14:18:47;5.95;;;1.50;;
66739;SDS011;53653;52.188;8.602;2022-07-05T14:21:13;6.10;;;1.25;;
66739;SDS011;53653;52.188;8.602;2022-07-05T14:23:43;3.92;;;1.40;;
66739;SDS011;53653;52.188;8.602;2022-07-05T14:26:11;5.80;;;1.50;;
66739;SDS011;53653;52.188;8.602;2022-07-05T14:28:37;8.68;;;1.35;;
66739;SDS011;53653;52.188;8.602;2022-07-05T14:31:02;4.80;;;1.33;;
66739;SDS011;53653;52.188;8.602;2022-07-05T14:33:28;4.40;;;1.20;;
66739;SDS011;53653;52.188;8.602;2022-07-05T14:35:54;4.03;;;1.20;;
66739;SDS011;53653;52.188;8.602;2022-07-05T14:38:19;3.63;;;1.10;;
66739;SDS011;53653;52.188;8.602;2022-07-05T14:40:45;4.40;;;1.40;;
66739;SDS011;53653;52.188;8.602;2022-07-05T14:43:10;4.00;;;1.10;;
66739;SDS011;53653;52.188;8.602;2022-07-05T14:45:35;4.70;;;1.20;;
66739;SDS011;53653;52.188;8.602;2022-07-05T14:48:01;4.33;;;1.37;;
66739;SDS011;53653;52.188;8.602;2022-07-05T14:50:26;5.93;;;1.43;;
66739;SDS011;53653;52.188;8.602;2022-07-05T14:52:52;4.23;;;1.27;;
66739;SDS011;53653;52.188;8.602;2022-07-05T14:55:18;5.57;;;1.27;;
66739;SDS011;53653;52.188;8.602;2022-07-05T14:57:43;3.90;;;1.10;;
66739;SDS011;53653;52.188;8.602;2022-07-05T15:00:10;4.03;;;1.10;;
66739;SDS011;53653;52.188;8.602;2022-07-05T15:02:37;4.18;;;1.17;;
66739;SDS011;53653;52.188;8.602;2022-07-05T15:05:03;6.63;;;1.37;;
66739;SDS011;53653;52.188;8.602;2022-07-05T15:07:29;5.10;;;1.25;;
66739;SDS011;53653;52.188;8.602;2022-07-05T15:09:55;7.50;;;1.20;;
66739;SDS011;53653;52.188;8.602;2022-07-05T15:12:21;5.27;;;1.37;;
66739;SDS011;53653;52.188;8.602;2022-07-05T15:14:46;4.15;;;1.10;;
66739;SDS011;53653;52.188;8.602;2022-07-05T15:17:12;7.80;;;1.20;;
66739;SDS011;53653;52.188;8.602;2022-07-05T15:19:38;7.20;;;1.17;;
66739;SDS011;53653;52.188;8.602;2022-07-05T15:22:05;4.68;;;1.30;;
66739;SDS011;53653;52.188;8.602;2022-07-05T15:24:31;4.07;;;1.50;;
66739;SDS011;53653;52.188;8.602;2022-07-05T15:26:56;4.38;;;1.23;;
66739;SDS011;53653;52.188;8.602;2022-07-05T15:29:22;6.00;;;1.20;;
66739;SDS011;53653;52.188;8.602;2022-07-05T15:31:47;5.40;;;1.40;;